Monday, October 16, 2017, 6:09 PM EDT
Back to Local

KSEG, Selinsgrove Penn Valley Airport

Location: Selinsgrove, PA, United States Lat: 40.817
Local Time: 6:09 PM EDT (22:09 GMT) Lon: -76.867
Time Zone: US/Eastern Elev: 449 ft

Show me the last for .
Show Decoded

2017-10-16 17:53 METAR KSEG 162153Z AUTO 33009KT 10SM CLR 14/01 A3014 RMK AO2 SLP206 T01390011 =
2017-10-16 16:53 METAR KSEG 162053Z AUTO 32011G17KT 10SM CLR 15/02 A3012 RMK AO2 SLP200 T01500017
                 53000 =
2017-10-16 15:53 METAR KSEG 161953Z AUTO 32009G15KT 10SM BKN070 14/02 A3011 RMK AO2 SLP197
                 T01440022 =
2017-10-16 14:53 METAR KSEG 161853Z AUTO 35010KT 10SM BKN060 14/03 A3011 RMK AO2 SLP196 T01440033
                 =
2017-10-16 13:53 METAR KSEG 161753Z AUTO 35014KT 10SM SCT055 15/04 A3012 RMK AO2 SLP199 60000
                 T01500039 10156 20100 58007 =
2017-10-16 12:53 METAR KSEG 161653Z AUTO 36008G16KT 10SM BKN047 BKN055 13/05 A3013 RMK AO2 SLP204
                 T01330050 =
2017-10-16 11:53 METAR KSEG 161553Z AUTO 02009KT 10SM BKN040 12/04 A3014 RMK AO2 SLP207 T01170044
                 =
2017-10-16 10:53 METAR KSEG 161453Z AUTO 32014KT 10SM BKN035 11/04 A3014 RMK AO2 RAB1357E08
                 SLP207 P0000 60000 T01060039 51014 =
2017-10-16 10:20 METAR KSEG 161420Z AUTO 35011KT 10SM SCT026 OVC038 11/06 A3013 RMK AO2
                 RAB1357E08 P0000 T01060061 =
2017-10-16 09:53 METAR KSEG 161353Z AUTO 36007KT 10SM BKN028 OVC033 11/06 A3012 RMK AO2 SLP201
                 T01060061 =
2017-10-16 09:49 METAR KSEG 161349Z AUTO 01009KT 10SM BKN028 OVC035 11/06 A3012 RMK AO2 =
2017-10-16 08:53 METAR KSEG 161253Z AUTO 34004KT 10SM OVC041 12/06 A3010 RMK AO2 SLP192 T01170056
                 =
2017-10-16 07:53 METAR KSEG 161153Z AUTO 33008KT 10SM OVC044 12/06 A3007 RMK AO2 SLP180 70014
                 T01170056 10167 20117 53031 =
2017-10-16 06:53 METAR KSEG 161053Z AUTO 34008KT 10SM BKN035 OVC046 12/07 A3003 RMK AO2 SLP168
                 T01220072 =
2017-10-16 05:53 METAR KSEG 160953Z AUTO 32008KT 10SM CLR 14/07 A3000 RMK AO2 SLP159 T01390067 =
2017-10-16 04:53 METAR KSEG 160853Z AUTO 32013G20KT 10SM SCT055 14/09 A2998 RMK AO2 SLP149
                 T01440089 53015 =
2017-10-16 03:53 METAR KSEG 160753Z AUTO 29007KT 10SM FEW060 16/11 A2995 RMK AO2 SLP139 T01560106
                 =
2017-10-16 02:53 METAR KSEG 160653Z AUTO 29004KT 10SM FEW055 16/12 A2994 RMK AO2 SLP136 T01610117
                 =
2017-10-16 01:53 METAR KSEG 160553Z AUTO 29004KT 10SM SCT043 16/13 A2993 RMK AO2 RAE01B27E37
                 SLP133 P0000 60014 T01610128 10222 20161 51017 =
2017-10-16 00:53 METAR KSEG 160453Z AUTO 00000KT 10SM -RA OVC100 17/14 A2992 RMK AO2 RAB45 SLP130
                 P0000 T01720139 402330156 =
2017-10-15 23:53 METAR KSEG 160353Z AUTO 00000KT 10SM FEW070 BKN090 OVC110 18/14 A2990 RMK AO2
                 SLP124 T01780144 =
2017-10-15 22:53 METAR KSEG 160253Z AUTO VRB04KT 10SM FEW025 SCT031 OVC090 19/17 A2988 RMK AO2
                 SLP116 60014 T01890167 53031 =
2017-10-15 21:53 METAR KSEG 160153Z AUTO 00000KT 10SM FEW031 SCT048 OVC080 20/19 A2984 RMK AO2
                 RAB21E52 SLP103 P0014 T02000189 =
2017-10-15 21:34 METAR KSEG 160134Z AUTO VRB06KT 3SM -RA BR FEW029 BKN045 OVC080 20/19 A2983 RMK
                 AO2 RAB21 P0014 T02000189 =
2017-10-15 21:24 METAR KSEG 160124Z AUTO VRB05G22KT 1 3/4SM +RA BR FEW017 BKN050 OVC065 21/19
                 A2983 RMK AO2 RAB21 PRESRR P0012 T02060189 =
2017-10-15 20:53 METAR KSEG 160053Z AUTO 17008G15KT 10SM SCT060 OVC090 22/18 A2978 RMK AO2 SLP080
                 T02170183 =
2017-10-15 19:53 METAR KSEG 152353Z AUTO 18008KT 10SM SCT060 22/18 A2978 RMK AO2 SLP083 T02170178
                 10233 20200 55010 =
2017-10-15 18:53 METAR KSEG 152253Z AUTO 18009KT 10SM FEW060 22/18 A2978 RMK AO2 SLP081 T02170178
                 =

Support USWX by starting your Amazon purchase here.